LFSX 221130Z AUTO 20006KT 160V260 CAVOK 09/02 Q1031

ElémentsDécodage
LFSX Station météo située sur l'aérodrome de LUXEUIL Saint-Sauveur
221130Z émis le 22 du mois à 11h30 UTC
AUTO Bulletin édité par un automate
20006KT vent du 200°, 06 noeuds
160V260 vent de direction variable entre 160° et 260°
CAVOK Ceiling And Visibility OK
- Visibilité de 10 Km ou plus
- Pas de nuage au-dessous de 1500m ou au-dessous de l'altitude minimale du secteur la plus élevée (si>1500m) et absence de CB
- pas de temps présent significatif
09/02 température 09°C, point de rosée 02°C
 soit une humidité relative de 62%
Q1031 la pression au niveau de la mer (QNH) est de 1031 hPa